Time;durP1;ratioP1;P1;durP2;ratioP2;P2;SDS_P1;SDS_P2;PMS_P1;PMS_P2;Temp;Humidity;BMP_temperature;BMP_pressure;BME280_temperature;BME280_humidity;BME280_pressure;Samples;Min_cycle;Max_cycle;Signal;HPM_P1;HPM_P2
2021/10/27 00:01:20;;;;;;;11.20;6.30;;;14.20;99.90;;;;;;5077200;28;20572;-84
2021/10/27 00:03:46;;;;;;;12.53;6.10;;;14.20;99.90;;;;;;5077303;28;20187;-82
2021/10/27 00:06:11;;;;;;;9.33;6.40;;;14.30;99.90;;;;;;5077175;28;20178;-84
2021/10/27 00:08:37;;;;;;;12.10;5.90;;;14.30;99.90;;;;;;5094290;28;20158;-82
2021/10/27 00:11:03;;;;;;;13.43;6.43;;;14.20;99.90;;;;;;5079042;28;20172;-81
2021/10/27 00:13:28;;;;;;;12.00;6.03;;;14.30;99.90;;;;;;5097285;28;20174;-81
2021/10/27 00:15:54;;;;;;;11.50;6.00;;;14.20;99.90;;;;;;5082745;28;20182;-83
2021/10/27 00:18:20;;;;;;;12.10;7.27;;;14.20;99.90;;;;;;5076547;28;20181;-82
2021/10/27 00:20:45;;;;;;;10.90;7.73;;;14.20;99.90;;;;;;5094499;28;20240;-82
2021/10/27 00:23:11;;;;;;;13.80;7.63;;;14.20;99.90;;;;;;5077763;28;20171;-83
2021/10/27 00:25:37;;;;;;;14.93;8.00;;;14.20;99.90;;;;;;5080310;28;20591;-83
2021/10/27 00:28:03;;;;;;;15.47;8.20;;;14.30;99.90;;;;;;5094741;28;20182;-82
2021/10/27 00:30:28;;;;;;;14.87;8.70;;;14.20;99.90;;;;;;5076523;28;20268;-83
2021/10/27 00:32:54;;;;;;;16.73;8.23;;;14.20;99.90;;;;;;5082585;28;20265;-82
2021/10/27 00:35:20;;;;;;;15.10;8.03;;;14.20;99.90;;;;;;5099565;28;20189;-81
2021/10/27 00:37:46;;;;;;;14.57;8.67;;;14.20;99.90;;;;;;5090254;28;20635;-83
2021/10/27 00:40:12;;;;;;;14.00;7.93;;;14.20;99.90;;;;;;5094554;28;20623;-82
2021/10/27 00:42:38;;;;;;;15.43;9.37;;;14.10;99.90;;;;;;5076438;28;20174;-82
2021/10/27 00:45:04;;;;;;;16.03;8.93;;;14.20;99.90;;;;;;5076428;28;20186;-83
2021/10/27 00:47:30;;;;;;;13.33;7.77;;;14.20;99.90;;;;;;5094932;28;20222;-82
2021/10/27 00:49:55;;;;;;;15.23;8.90;;;14.40;99.90;;;;;;5094728;28;20656;-83
2021/10/27 00:52:21;;;;;;;14.37;8.77;;;14.10;99.90;;;;;;5101660;28;20261;-83
2021/10/27 00:54:50;;;;;;;13.97;8.33;;;14.10;99.90;;;;;;5117173;28;20158;-82
2021/10/27 00:57:17;;;;;;;12.17;8.50;;;14.10;99.90;;;;;;5098303;28;20178;-82
2021/10/27 00:59:45;;;;;;;14.60;8.80;;;14.10;99.90;;;;;;5079628;28;20644;-82
2021/10/27 01:02:13;;;;;;;15.53;9.17;;;14.10;99.90;;;;;;5097726;28;20163;-82
2021/10/27 01:04:40;;;;;;;14.70;8.03;;;14.10;99.90;;;;;;5079039;28;20669;-83
2021/10/27 01:07:09;;;;;;;11.50;7.37;;;14.00;99.90;;;;;;5079314;28;20174;-82
2021/10/27 01:09:37;;;;;;;11.83;8.17;;;14.10;99.90;;;;;;5076447;28;20194;-83
2021/10/27 01:12:04;;;;;;;11.47;7.90;;;14.10;99.90;;;;;;5075571;28;20247;-83
2021/10/27 01:14:35;;;;;;;13.13;8.30;;;14.10;99.90;;;;;;5093593;28;20169;-82
2021/10/27 01:17:03;;;;;;;14.17;8.00;;;14.10;99.90;;;;;;5077159;28;20195;-82
2021/10/27 01:19:41;;;;;;;16.03;9.00;;;14.00;99.90;;;;;;5088005;28;20224;-82
2021/10/27 01:22:07;;;;;;;15.17;9.23;;;14.00;99.90;;;;;;5088063;28;20191;-82
2021/10/27 01:24:32;;;;;;;16.50;8.87;;;14.00;99.90;;;;;;5075574;28;20244;-83
2021/10/27 01:26:58;;;;;;;17.97;8.10;;;14.00;99.90;;;;;;5075518;28;20210;-83
2021/10/27 01:29:24;;;;;;;13.63;7.70;;;14.00;99.90;;;;;;5075633;28;20172;-82
2021/10/27 01:31:53;;;;;;;15.50;8.63;;;13.90;99.90;;;;;;5076068;28;20183;-85
2021/10/27 01:34:18;;;;;;;16.57;8.77;;;14.00;99.90;;;;;;5094466;28;20170;-82
2021/10/27 01:36:45;;;;;;;13.87;8.73;;;13.90;99.90;;;;;;5093736;28;20169;-83
2021/10/27 01:39:10;;;;;;;13.97;8.43;;;13.90;99.90;;;;;;5076020;28;20689;-83
2021/10/27 01:41:36;;;;;;;14.30;8.80;;;13.80;99.90;;;;;;5094095;28;20206;-83
2021/10/27 01:44:02;;;;;;;14.20;9.20;;;13.80;99.90;;;;;;5101526;28;20229;-82
2021/10/27 01:46:33;;;;;;;15.87;9.27;;;13.70;99.90;;;;;;5091956;28;20190;-83
2021/10/27 01:49:00;;;;;;;15.33;9.60;;;13.80;99.90;;;;;;5099671;28;20174;-83
2021/10/27 01:51:26;;;;;;;14.37;9.40;;;13.70;99.90;;;;;;5076538;28;20215;-83
2021/10/27 01:53:53;;;;;;;13.53;9.47;;;13.70;99.90;;;;;;5076276;28;20176;-83
2021/10/27 01:56:19;;;;;;;16.43;9.63;;;13.80;99.90;;;;;;5077067;28;20164;-82
2021/10/27 01:58:44;;;;;;;16.33;9.63;;;13.70;99.90;;;;;;5077151;28;20662;-84
2021/10/27 02:01:10;;;;;;;13.47;9.03;;;13.70;99.90;;;;;;5095555;28;20213;-84
2021/10/27 02:03:36;;;;;;;19.93;11.53;;;13.60;99.90;;;;;;5093794;28;20200;-83
2021/10/27 02:06:03;;;;;;;14.53;9.87;;;13.60;99.90;;;;;;5097155;28;20193;-83
2021/10/27 02:08:29;;;;;;;15.60;10.37;;;13.60;99.90;;;;;;5093409;28;20626;-83
2021/10/27 02:10:55;;;;;;;17.47;10.03;;;13.70;99.90;;;;;;5075534;28;20312;-84
2021/10/27 02:13:21;;;;;;;16.50;9.70;;;13.60;99.90;;;;;;5075238;28;20256;-83
2021/10/27 02:15:46;;;;;;;13.37;9.47;;;13.60;99.90;;;;;;5093261;28;20261;-83
2021/10/27 02:18:12;;;;;;;15.00;9.50;;;13.60;99.90;;;;;;5075215;28;20172;-83
2021/10/27 02:20:39;;;;;;;14.53;9.10;;;13.70;99.90;;;;;;5075042;28;20309;-83
2021/10/27 02:23:04;;;;;;;16.53;9.93;;;13.70;99.90;;;;;;5074290;28;20175;-83
2021/10/27 02:25:30;;;;;;;14.37;9.13;;;13.60;99.90;;;;;;5075161;28;20181;-83
2021/10/27 02:27:56;;;;;;;13.57;9.33;;;13.70;99.90;;;;;;5093161;28;20181;-84
2021/10/27 02:30:21;;;;;;;14.23;9.10;;;13.60;99.90;;;;;;5095259;28;20669;-83
2021/10/27 02:32:47;;;;;;;13.60;8.97;;;13.60;99.90;;;;;;5078076;28;20241;-83
2021/10/27 02:35:13;;;;;;;13.17;8.07;;;13.60;99.90;;;;;;5096489;28;20207;-83
2021/10/27 02:37:39;;;;;;;14.27;8.90;;;13.70;99.90;;;;;;5078548;28;20183;-83
2021/10/27 02:40:06;;;;;;;14.23;8.83;;;13.60;99.90;;;;;;5096420;28;20604;-83
2021/10/27 02:42:31;;;;;;;14.87;9.20;;;13.70;99.90;;;;;;5078131;28;20256;-83
2021/10/27 02:44:57;;;;;;;16.73;9.20;;;13.70;99.90;;;;;;5096823;28;20258;-83
2021/10/27 02:47:23;;;;;;;13.90;9.13;;;13.90;99.90;;;;;;5096357;28;20169;-83
2021/10/27 02:49:48;;;;;;;16.97;9.27;;;13.90;99.90;;;;;;5096342;28;20707;-83
2021/10/27 02:52:14;;;;;;;12.33;8.93;;;14.00;99.90;;;;;;5078309;28;20186;-83
2021/10/27 02:54:40;;;;;;;12.23;8.53;;;13.90;99.90;;;;;;5078503;28;20193;-83
2021/10/27 02:57:05;;;;;;;12.43;8.67;;;13.90;99.90;;;;;;5078331;28;20274;-83
2021/10/27 02:59:32;;;;;;;14.23;9.47;;;14.00;99.90;;;;;;5096056;28;20184;-82
2021/10/27 03:01:58;;;;;;;18.13;9.77;;;14.00;99.90;;;;;;5096589;28;20171;-83
2021/10/27 03:04:23;;;;;;;13.50;9.17;;;14.00;99.90;;;;;;5078200;28;20184;-83
2021/10/27 03:06:49;;;;;;;11.50;8.53;;;13.90;99.90;;;;;;5096652;28;20214;-82
2021/10/27 03:09:15;;;;;;;16.00;9.30;;;13.90;99.90;;;;;;5078368;28;20183;-83
2021/10/27 03:11:41;;;;;;;14.70;8.53;;;13.80;99.90;;;;;;5081851;28;20238;-83
2021/10/27 03:14:07;;;;;;;12.23;8.57;;;13.90;99.90;;;;;;5105619;28;20657;-83
2021/10/27 03:16:33;;;;;;;13.83;8.07;;;13.90;99.90;;;;;;5116284;28;20169;-83
2021/10/27 03:18:59;;;;;;;12.13;7.87;;;13.90;99.90;;;;;;5099409;28;20182;-83
2021/10/27 03:21:24;;;;;;;12.20;8.33;;;13.90;99.90;;;;;;5116622;28;20245;-82
2021/10/27 03:23:50;;;;;;;13.80;8.43;;;13.80;99.90;;;;;;5103943;28;20174;-83
2021/10/27 03:26:26;;;;;;;15.67;8.07;;;13.80;99.90;;;;;;5105946;28;20156;-83
2021/10/27 03:28:52;;;;;;;13.10;8.17;;;13.80;99.90;;;;;;5082395;28;20185;-84
2021/10/27 03:31:17;;;;;;;12.43;8.53;;;13.90;99.90;;;;;;5085301;28;20175;-82
2021/10/27 03:33:43;;;;;;;14.10;8.30;;;13.90;99.90;;;;;;5101969;28;20179;-83
2021/10/27 03:36:10;;;;;;;13.90;7.93;;;13.80;99.90;;;;;;5102801;28;20143;-82
2021/10/27 03:38:36;;;;;;;14.23;7.83;;;13.70;99.90;;;;;;5119324;28;20164;-83
2021/10/27 03:41:02;;;;;;;13.43;7.43;;;13.70;99.90;;;;;;5101868;28;20228;-83
2021/10/27 03:43:31;;;;;;;12.37;7.80;;;13.70;99.90;;;;;;5079113;28;20181;-84
2021/10/27 03:46:08;;;;;;;10.50;7.73;;;13.70;99.90;;;;;;5082090;28;20536;-83
2021/10/27 03:48:38;;;;;;;15.67;7.87;;;13.70;99.90;;;;;;5088101;28;20210;-83
2021/10/27 03:51:04;;;;;;;16.27;8.10;;;13.70;99.90;;;;;;5101706;28;20171;-83
2021/10/27 03:53:30;;;;;;;15.13;7.77;;;13.60;99.90;;;;;;5077970;28;20264;-83
2021/10/27 03:55:56;;;;;;;13.33;7.73;;;13.60;99.90;;;;;;5086781;28;20172;-83
2021/10/27 03:58:22;;;;;;;13.23;7.13;;;13.70;99.90;;;;;;5087040;28;20182;-83
2021/10/27 04:00:47;;;;;;;14.37;7.50;;;13.70;99.90;;;;;;5079788;28;20227;-83
2021/10/27 04:03:21;;;;;;;12.80;7.87;;;13.70;99.90;;;;;;5095121;28;20168;-83
2021/10/27 04:05:46;;;;;;;8.97;6.97;;;13.70;99.90;;;;;;5076488;28;20520;-82
2021/10/27 04:08:12;;;;;;;12.00;7.67;;;13.80;99.90;;;;;;5078444;28;20211;-84
2021/10/27 04:10:39;;;;;;;10.00;7.60;;;13.70;99.90;;;;;;5095723;28;20223;-83
2021/10/27 04:13:05;;;;;;;13.90;7.97;;;13.70;99.90;;;;;;5095498;28;20228;-82
2021/10/27 04:15:31;;;;;;;13.50;8.40;;;13.70;99.90;;;;;;5077907;28;20179;-85
2021/10/27 04:17:57;;;;;;;14.37;7.90;;;13.80;99.90;;;;;;5094758;28;20550;-83
2021/10/27 04:20:24;;;;;;;15.80;9.13;;;13.80;99.90;;;;;;5094755;28;20262;-83
2021/10/27 04:22:50;;;;;;;15.17;8.50;;;13.90;99.90;;;;;;5076263;28;20509;-82
2021/10/27 04:25:15;;;;;;;13.47;8.20;;;13.90;99.90;;;;;;5076398;28;20695;-83
2021/10/27 04:27:41;;;;;;;14.90;8.27;;;13.80;99.90;;;;;;5076313;28;20182;-83
2021/10/27 04:30:08;;;;;;;14.37;9.10;;;13.80;99.90;;;;;;5076152;28;20173;-83
2021/10/27 04:32:35;;;;;;;16.83;8.80;;;13.70;99.90;;;;;;5076162;28;20251;-83
2021/10/27 04:35:01;;;;;;;13.60;8.30;;;13.70;99.90;;;;;;5095631;28;20174;-83
2021/10/27 04:37:27;;;;;;;13.50;8.80;;;13.70;99.90;;;;;;5076659;28;20598;-84
2021/10/27 04:39:53;;;;;;;16.80;9.03;;;13.70;99.90;;;;;;5076864;28;20222;-84
2021/10/27 04:42:20;;;;;;;18.80;9.33;;;13.90;99.90;;;;;;5094792;28;20556;-83
2021/10/27 04:44:45;;;;;;;14.10;9.60;;;13.80;99.90;;;;;;5076385;28;20179;-83
2021/10/27 04:47:11;;;;;;;15.73;8.10;;;13.70;99.90;;;;;;5076743;28;20181;-83
2021/10/27 04:49:37;;;;;;;13.50;8.77;;;13.80;99.90;;;;;;5084906;28;20179;-83
2021/10/27 04:52:03;;;;;;;13.47;8.60;;;13.80;99.90;;;;;;5113699;28;20173;-82
2021/10/27 04:54:29;;;;;;;14.50;8.70;;;13.70;99.90;;;;;;5082705;28;20175;-83
2021/10/27 04:56:55;;;;;;;14.60;8.70;;;13.80;99.90;;;;;;5076487;28;20532;-83
2021/10/27 04:59:21;;;;;;;15.43;8.40;;;13.90;99.90;;;;;;5076284;28;20187;-83
2021/10/27 05:01:46;;;;;;;13.60;8.83;;;13.70;99.90;;;;;;5076525;28;20677;-83
2021/10/27 05:04:13;;;;;;;14.27;8.97;;;13.70;99.90;;;;;;5077104;28;20244;-83
2021/10/27 05:06:39;;;;;;;14.33;10.07;;;13.70;99.90;;;;;;5077627;28;20526;-84
2021/10/27 05:09:04;;;;;;;13.70;9.27;;;13.80;99.90;;;;;;5078315;28;20262;-83
2021/10/27 05:11:30;;;;;;;14.77;8.53;;;13.70;99.90;;;;;;5091214;28;20172;-83
2021/10/27 05:13:56;;;;;;;12.23;8.20;;;13.80;99.90;;;;;;5110505;28;20659;-82
2021/10/27 05:16:22;;;;;;;17.77;9.30;;;13.70;99.90;;;;;;5095753;28;20616;-82
2021/10/27 05:18:48;;;;;;;14.30;9.77;;;13.70;99.90;;;;;;5097612;28;20156;-82
2021/10/27 05:21:13;;;;;;;17.10;8.70;;;13.60;99.90;;;;;;5108107;28;20215;-83
2021/10/27 05:23:39;;;;;;;13.60;8.83;;;13.60;99.90;;;;;;5087032;28;20193;-84
2021/10/27 05:26:05;;;;;;;12.50;8.80;;;13.70;99.90;;;;;;5080624;28;20195;-84
2021/10/27 05:28:32;;;;;;;14.90;9.27;;;13.60;99.90;;;;;;5097892;28;20588;-82
2021/10/27 05:30:59;;;;;;;14.17;8.83;;;13.70;99.90;;;;;;5076756;28;20174;-83
2021/10/27 05:33:24;;;;;;;16.07;9.23;;;13.70;99.90;;;;;;5093987;28;20698;-83
2021/10/27 05:35:51;;;;;;;14.80;9.20;;;13.80;99.90;;;;;;5076767;28;20300;-83
2021/10/27 05:38:17;;;;;;;16.33;9.03;;;13.70;99.90;;;;;;5094258;28;20169;-83
2021/10/27 05:40:43;;;;;;;13.80;8.90;;;13.70;99.90;;;;;;5093118;28;20211;-86
2021/10/27 05:43:11;;;;;;;13.93;8.77;;;13.70;99.90;;;;;;5094689;28;20164;-84
2021/10/27 05:45:38;;;;;;;13.53;9.03;;;13.80;99.90;;;;;;5093370;28;20172;-81
2021/10/27 05:48:05;;;;;;;12.23;9.00;;;13.70;99.90;;;;;;5114003;28;20183;-82
2021/10/27 05:50:57;;;;;;;17.57;10.13;;;13.70;99.90;;;;;;5099981;28;20188;-82
2021/10/27 05:56:09;;;;;;;14.97;9.13;;;13.80;99.90;;;;;;5102607;28;20172;-83
2021/10/27 05:58:35;;;;;;;15.67;9.13;;;13.90;99.90;;;;;;5110991;28;20295;-85
2021/10/27 06:01:00;;;;;;;15.67;9.30;;;13.70;99.90;;;;;;5107168;28;20213;-84
2021/10/27 06:03:26;;;;;;;15.20;8.90;;;13.70;99.90;;;;;;5115125;28;20176;-85
2021/10/27 06:05:52;;;;;;;13.47;8.23;;;13.80;99.90;;;;;;5109194;28;20178;-82
2021/10/27 06:08:19;;;;;;;13.70;8.47;;;13.60;99.90;;;;;;5101997;27;20178;-84
2021/10/27 06:10:46;;;;;;;14.30;9.13;;;13.60;99.90;;;;;;5109864;28;20172;-81
2021/10/27 06:13:14;;;;;;;15.63;9.90;;;13.50;99.90;;;;;;5111040;28;20258;-82
2021/10/27 06:15:40;;;;;;;13.47;8.90;;;13.50;99.90;;;;;;5078241;28;20167;-84
2021/10/27 06:18:06;;;;;;;14.17;9.23;;;13.50;99.90;;;;;;5089399;28;20260;-82
2021/10/27 06:20:32;;;;;;;17.10;9.37;;;13.40;99.90;;;;;;5093452;28;20203;-83
2021/10/27 06:22:58;;;;;;;19.03;10.70;;;13.40;99.90;;;;;;5099028;28;20159;-85
2021/10/27 06:25:27;;;;;;;16.47;11.40;;;13.50;99.90;;;;;;5079898;28;20168;-84
2021/10/27 06:28:03;;;;;;;15.97;10.60;;;13.40;99.90;;;;;;5079970;28;20179;-84
2021/10/27 06:30:40;;;;;;;19.03;10.40;;;13.40;99.90;;;;;;5094160;28;20163;-84
2021/10/27 06:33:19;;;;;;;14.77;9.50;;;13.40;99.90;;;;;;5114851;28;20185;-84
2021/10/27 06:35:50;;;;;;;14.60;9.97;;;13.40;99.90;;;;;;5084416;28;20173;-84
2021/10/27 06:46:38;;;;;;;17.87;10.57;;;13.40;99.90;;;;;;5098604;28;20167;-85
2021/10/27 06:49:05;;;;;;;18.13;11.03;;;13.30;99.90;;;;;;5090065;28;20171;-84
2021/10/27 06:51:31;;;;;;;17.90;11.03;;;13.20;99.90;;;;;;5104785;28;20198;-86
2021/10/27 06:53:57;;;;;;;16.47;11.37;;;13.20;99.90;;;;;;5117326;28;20179;-84
2021/10/27 06:56:24;;;;;;;15.00;10.80;;;13.20;99.90;;;;;;5118887;28;20184;-85
2021/10/27 06:59:13;;;;;;;23.07;15.40;;;13.10;99.90;;;;;;5093194;28;20214;-85
2021/10/27 07:17:25;;;;;;;17.43;12.10;;;13.40;99.90;;;;;;5098247;28;20176;-86
2021/10/27 07:19:51;;;;;;;19.77;12.90;;;13.50;99.90;;;;;;5105603;28;20210;-85
2021/10/27 07:22:16;;;;;;;17.80;12.03;;;13.50;99.90;;;;;;5082926;28;20172;-85
2021/10/27 07:24:43;;;;;;;17.17;12.00;;;13.50;99.90;;;;;;5079589;28;20171;-84
2021/10/27 07:27:11;;;;;;;20.00;12.33;;;13.50;99.90;;;;;;5080452;28;20186;-89
2021/10/27 07:29:38;;;;;;;17.73;12.67;;;13.50;99.90;;;;;;5092158;28;20172;-85
2021/10/27 07:32:06;;;;;;;21.90;12.50;;;13.50;99.90;;;;;;5098655;28;20506;-83
2021/10/27 07:34:35;;;;;;;21.30;13.67;;;13.60;99.90;;;;;;5098335;28;20179;-85
2021/10/27 07:40:33;;;;;;;21.47;13.43;;;13.80;99.90;;;;;;5117297;28;20209;-84
2021/10/27 07:43:04;;;;;;;18.37;12.83;;;13.70;99.90;;;;;;5120099;28;20266;-86
2021/10/27 07:45:31;;;;;;;18.03;13.30;;;13.60;99.90;;;;;;5101937;28;20173;-85
2021/10/27 07:47:58;;;;;;;19.63;12.10;;;13.60;99.90;;;;;;5103989;27;20171;-89
2021/10/27 07:50:27;;;;;;;18.73;13.40;;;13.60;99.90;;;;;;5137099;27;20176;-91
2021/10/27 07:52:54;;;;;;;21.43;14.00;;;13.50;99.90;;;;;;5133534;27;20182;-91
2021/10/27 07:55:20;;;;;;;20.00;14.50;;;13.50;99.90;;;;;;5122503;27;20167;-92
2021/10/27 07:57:47;;;;;;;19.33;14.23;;;13.50;99.90;;;;;;5121594;27;20181;-90
2021/10/27 08:00:19;;;;;;;19.07;13.83;;;13.60;99.90;;;;;;5121537;27;20210;-88
2021/10/27 08:02:47;;;;;;;20.37;14.50;;;13.70;99.90;;;;;;5102829;27;20747;-90
2021/10/27 08:05:13;;;;;;;20.60;14.30;;;13.70;99.90;;;;;;5108379;28;20183;-88
2021/10/27 08:07:48;;;;;;;20.33;15.93;;;13.80;99.90;;;;;;5107922;28;20178;-88
2021/10/27 08:10:24;;;;;;;23.73;16.97;;;13.80;99.90;;;;;;5104305;28;20559;-86
2021/10/27 08:12:51;;;;;;;21.70;15.77;;;13.80;99.90;;;;;;5135923;28;20225;-85
2021/10/27 08:15:20;;;;;;;19.37;15.83;;;13.80;99.90;;;;;;5107127;28;20695;-90
2021/10/27 08:17:48;;;;;;;23.13;16.13;;;13.70;99.90;;;;;;5103098;28;20172;-90
2021/10/27 08:20:16;;;;;;;22.27;15.37;;;13.60;99.90;;;;;;5103841;28;20280;-84
2021/10/27 08:22:45;;;;;;;18.47;14.93;;;13.70;99.90;;;;;;5115718;28;20199;-86
2021/10/27 08:25:30;;;;;;;22.97;15.70;;;14.10;99.90;;;;;;5109339;28;20185;-82
2021/10/27 08:28:07;;;;;;;21.70;17.27;;;14.30;99.90;;;;;;5131589;27;20225;-91
2021/10/27 08:36:37;;;;;;;22.20;15.67;;;14.00;99.90;;;;;;5120520;28;20169;-88
2021/10/27 08:39:08;;;;;;;23.23;16.93;;;13.90;99.90;;;;;;5131550;27;20160;-87
2021/10/27 08:41:38;;;;;;;26.10;17.10;;;13.80;99.90;;;;;;5119910;28;20212;-88
2021/10/27 08:44:04;;;;;;;31.37;18.37;;;13.70;99.90;;;;;;5112983;28;20163;-89
2021/10/27 08:46:34;;;;;;;24.13;16.93;;;13.60;99.90;;;;;;5114175;28;20183;-87
2021/10/27 08:49:04;;;;;;;23.77;17.53;;;13.70;99.90;;;;;;5113980;28;20164;-87
2021/10/27 08:51:34;;;;;;;26.50;18.30;;;13.80;99.90;;;;;;5091784;28;20266;-88
2021/10/27 08:54:01;;;;;;;23.80;17.50;;;13.80;99.90;;;;;;5092658;27;20166;-89
2021/10/27 08:56:30;;;;;;;24.60;17.30;;;13.90;99.90;;;;;;5120877;27;20179;-89
2021/10/27 08:59:22;;;;;;;22.07;17.00;;;13.90;99.90;;;;;;5120601;27;20599;-89
2021/10/27 09:05:10;;;;;;;24.60;17.27;;;13.90;99.90;;;;;;5045312;27;20196;-78
2021/10/27 09:34:02;;;;;;;22.17;15.77;;;14.10;99.90;;;;;;5136318;28;20174;-86
2021/10/27 09:37:13;;;;;;;17.30;13.90;;;14.20;99.90;;;;;;5137813;28;20159;-88
2021/10/27 09:56:27;;;;;;;21.80;12.10;;;14.90;99.90;;;;;;5101681;28;20254;-93
2021/10/27 10:06:45;;;;;;;18.67;11.10;;;15.10;99.90;;;;;;5106382;28;20182;-93
2021/10/27 10:09:15;;;;;;;18.17;11.57;;;15.00;99.90;;;;;;5075082;28;20179;-93
2021/10/27 10:11:51;;;;;;;18.10;11.13;;;15.10;99.90;;;;;;5116835;28;20164;-88
2021/10/27 10:14:19;;;;;;;17.23;12.10;;;15.10;99.90;;;;;;5100693;28;20179;-93
2021/10/27 10:16:56;;;;;;;14.97;11.33;;;15.20;99.90;;;;;;5092990;28;20219;-86
2021/10/27 10:19:35;;;;;;;15.07;10.37;;;15.30;99.90;;;;;;5099140;28;20195;-86
2021/10/27 10:22:01;;;;;;;16.43;10.47;;;15.50;99.40;;;;;;5088879;28;20661;-85
2021/10/27 10:24:33;;;;;;;18.30;12.30;;;15.50;98.70;;;;;;5092076;28;20184;-85
2021/10/27 10:27:40;;;;;;;15.23;10.07;;;15.50;98.40;;;;;;5097826;28;20270;-85
2021/10/27 10:30:40;;;;;;;15.70;9.73;;;15.50;97.60;;;;;;5085810;28;20239;-86
2021/10/27 10:33:13;;;;;;;12.33;9.73;;;15.70;97.50;;;;;;5093938;28;20536;-85
2021/10/27 10:35:57;;;;;;;13.70;10.40;;;15.70;96.60;;;;;;5097154;28;20156;-87
2021/10/27 10:39:01;;;;;;;17.63;12.23;;;16.00;95.90;;;;;;5091867;28;20171;-89
2021/10/27 11:01:59;;;;;;;9.97;6.70;;;16.60;91.60;;;;;;5113440;28;20709;-82
2021/10/27 11:25:30;;;;;;;9.63;5.10;;;17.20;85.00;;;;;;5099821;28;20152;-84
2021/10/27 11:44:51;;;;;;;7.07;4.33;;;17.40;75.40;;;;;;5115330;28;20646;-84
2021/10/27 11:47:48;;;;;;;6.93;4.33;;;17.30;77.00;;;;;;5114949;27;20155;-85
2021/10/27 11:50:23;;;;;;;9.27;4.23;;;17.30;77.30;;;;;;5115816;28;20207;-84
2021/10/27 11:52:54;;;;;;;5.50;3.97;;;17.30;77.60;;;;;;5074937;28;20175;-85
2021/10/27 11:55:21;;;;;;;7.07;4.23;;;17.20;78.50;;;;;;5105365;27;20179;-85
2021/10/27 11:57:53;;;;;;;8.27;4.43;;;17.20;79.10;;;;;;5130653;27;20194;-85
2021/10/27 12:00:32;;;;;;;9.60;4.23;;;17.20;79.90;;;;;;5109322;28;20221;-82
2021/10/27 12:03:12;;;;;;;8.47;4.00;;;17.20;79.70;;;;;;5107076;28;20171;-82
2021/10/27 12:11:31;;;;;;;9.20;4.40;;;17.60;75.90;;;;;;5087437;28;20183;-89
2021/10/27 12:14:58;;;;;;;7.50;4.37;;;17.40;74.80;;;;;;5130415;27;20218;-95
2021/10/27 12:17:25;;;;;;;10.77;4.43;;;17.50;75.50;;;;;;5105668;27;20555;-94
2021/10/27 12:19:51;;;;;;;9.70;5.03;;;17.60;75.20;;;;;;5121250;27;20186;-87
2021/10/27 12:22:23;;;;;;;6.47;4.40;;;17.60;75.30;;;;;;5124575;27;20270;-83
2021/10/27 12:24:59;;;;;;;7.87;4.53;;;17.50;75.60;;;;;;5107595;28;20186;-82
2021/10/27 12:27:48;;;;;;;7.53;4.63;;;17.40;77.10;;;;;;5106285;28;20165;-84
2021/10/27 12:30:21;;;;;;;6.37;4.63;;;17.40;77.20;;;;;;5135884;27;20183;-84
2021/10/27 12:32:55;;;;;;;8.10;4.80;;;17.50;76.20;;;;;;5106100;28;20179;-85
2021/10/27 12:35:28;;;;;;;7.93;4.73;;;17.50;76.40;;;;;;5116622;28;20160;-88
2021/10/27 12:38:19;;;;;;;8.60;5.17;;;17.50;76.50;;;;;;5117788;27;20192;-82
2021/10/27 12:40:46;;;;;;;11.50;5.10;;;17.60;76.50;;;;;;5105177;28;20216;-85
2021/10/27 12:43:41;;;;;;;9.67;4.60;;;17.70;74.50;;;;;;5103719;28;20161;-81
2021/10/27 12:46:26;;;;;;;8.73;4.80;;;17.60;74.50;;;;;;5121884;28;20230;-82
2021/10/27 12:49:04;;;;;;;6.60;4.60;;;17.70;74.00;;;;;;5105132;27;20160;-83
2021/10/27 12:51:45;;;;;;;9.67;4.97;;;17.80;72.80;;;;;;5117795;27;20174;-87
2021/10/27 12:54:29;;;;;;;8.70;4.80;;;17.70;73.10;;;;;;5138749;27;20608;-87
2021/10/27 12:57:10;;;;;;;7.83;4.63;;;17.90;70.60;;;;;;5141211;27;20261;-84
2021/10/27 13:00:11;;;;;;;7.20;4.30;;;17.90;70.40;;;;;;5121031;27;20586;-85
2021/10/27 13:02:41;;;;;;;7.53;3.80;;;17.90;67.50;;;;;;5127188;27;20241;-83
2021/10/27 13:05:27;;;;;;;4.77;3.37;;;17.90;65.30;;;;;;5132657;27;20148;-83
2021/10/27 13:08:21;;;;;;;7.73;3.30;;;18.00;60.60;;;;;;5093898;28;20183;-82
2021/10/27 13:11:01;;;;;;;5.80;3.60;;;17.90;58.90;;;;;;5120833;28;20182;-82
2021/10/27 13:19:06;;;;;;;7.50;3.30;;;18.10;56.70;;;;;;5101686;28;20171;-83
2021/10/27 13:29:54;;;;;;;8.07;2.57;;;18.00;58.70;;;;;;5142652;28;20184;-93
2021/10/27 13:32:51;;;;;;;5.60;3.17;;;18.10;58.00;;;;;;5109669;28;20180;-90
2021/10/27 13:35:22;;;;;;;9.03;3.63;;;18.20;58.30;;;;;;5095246;28;20261;-90
2021/10/27 13:37:54;;;;;;;6.50;3.60;;;18.30;59.60;;;;;;5102610;28;20187;-87
2021/10/27 13:40:24;;;;;;;7.57;3.20;;;18.10;60.10;;;;;;5072193;28;20252;-86
2021/10/27 13:43:22;;;;;;;6.60;3.23;;;18.10;61.30;;;;;;5089927;28;20192;-86
2021/10/27 14:07:50;;;;;;;5.33;2.40;;;18.20;40.80;;;;;;5118092;28;20180;-84
2021/10/27 14:11:04;;;;;;;4.83;2.50;;;18.20;41.00;;;;;;5113251;28;20242;-83
2021/10/27 14:13:35;;;;;;;5.43;2.47;;;18.20;43.60;;;;;;5118348;27;20198;-88
2021/10/27 14:16:33;;;;;;;9.20;2.80;;;18.10;46.50;;;;;;5108279;28;20179;-82
2021/10/27 14:48:05;;;;;;;6.23;3.70;;;18.70;35.00;;;;;;5140639;27;20161;-82
2021/10/27 15:22:03;;;;;;;7.87;4.23;;;18.20;49.90;;;;;;5139209;28;20228;-89
2021/10/27 15:24:41;;;;;;;7.30;4.30;;;18.40;48.40;;;;;;5124804;28;20180;-85
2021/10/27 15:52:04;;;;;;;10.23;5.03;;;18.90;38.90;;;;;;5142289;27;20185;-83
2021/10/27 15:54:30;;;;;;;8.77;4.60;;;18.60;46.30;;;;;;5139468;27;20174;-85
2021/10/27 15:56:59;;;;;;;10.37;5.20;;;18.40;49.30;;;;;;5127533;27;20177;-85
2021/10/27 16:00:07;;;;;;;6.77;4.50;;;18.30;50.60;;;;;;5119906;27;20420;-87
2021/10/27 16:02:32;;;;;;;7.43;5.07;;;18.40;51.30;;;;;;5120021;27;20272;-86
2021/10/27 16:04:58;;;;;;;10.00;4.80;;;18.30;52.30;;;;;;5121043;27;20202;-86
2021/10/27 16:07:26;;;;;;;8.83;4.63;;;18.10;55.50;;;;;;5121618;27;20179;-89
2021/10/27 16:09:59;;;;;;;10.93;6.27;;;17.70;61.10;;;;;;5120714;27;20634;-84
2021/10/27 16:12:28;;;;;;;9.63;4.80;;;17.40;67.60;;;;;;5118620;27;20195;-86
2021/10/27 16:15:01;;;;;;;9.93;5.73;;;17.20;75.50;;;;;;5119596;27;20173;-86
2021/10/27 16:17:26;;;;;;;10.20;5.50;;;16.80;81.50;;;;;;5118803;27;20632;-87
2021/10/27 16:19:52;;;;;;;11.37;6.43;;;16.60;85.90;;;;;;5117742;27;20212;-85
2021/10/27 16:22:18;;;;;;;10.67;5.87;;;16.40;88.10;;;;;;5116615;27;20182;-84
2021/10/27 16:24:44;;;;;;;7.83;5.50;;;16.40;89.60;;;;;;5097392;28;20235;-84
2021/10/27 16:27:15;;;;;;;8.50;5.77;;;16.50;89.90;;;;;;5101748;27;20198;-84
2021/10/27 16:29:41;;;;;;;10.40;6.00;;;16.20;90.70;;;;;;5136616;27;20167;-88
2021/10/27 16:32:08;;;;;;;11.13;5.77;;;16.20;92.00;;;;;;5118744;27;20174;-83
2021/10/27 16:34:34;;;;;;;10.87;6.30;;;16.00;92.80;;;;;;5118559;27;20175;-85
2021/10/27 16:36:59;;;;;;;10.50;6.20;;;15.80;93.70;;;;;;5136379;27;20209;-86
2021/10/27 16:39:25;;;;;;;9.80;5.73;;;15.70;94.30;;;;;;5117957;27;20170;-86
2021/10/27 16:41:51;;;;;;;8.77;5.80;;;15.70;94.20;;;;;;5136182;27;20198;-86
2021/10/27 16:44:16;;;;;;;11.67;6.73;;;15.80;94.00;;;;;;5118894;27;20182;-85
2021/10/27 16:46:42;;;;;;;10.80;6.47;;;15.70;94.40;;;;;;5119394;27;20180;-85
2021/10/27 16:49:09;;;;;;;12.67;6.80;;;15.60;94.70;;;;;;5118418;27;20163;-83
2021/10/27 16:51:35;;;;;;;8.50;6.30;;;15.50;95.10;;;;;;5110027;27;20194;-85
2021/10/27 16:54:04;;;;;;;11.43;6.53;;;15.50;95.60;;;;;;5119306;27;20170;-85
2021/10/27 16:56:30;;;;;;;11.20;6.10;;;15.40;95.80;;;;;;5119402;27;20199;-83
2021/10/27 16:58:56;;;;;;;10.53;6.60;;;15.50;95.90;;;;;;5137100;27;20163;-85
2021/10/27 17:01:23;;;;;;;8.73;6.43;;;15.50;95.10;;;;;;5127008;27;20833;-84
2021/10/27 17:03:49;;;;;;;10.23;6.50;;;15.40;95.50;;;;;;5097243;28;20254;-85
2021/10/27 17:06:17;;;;;;;9.60;6.57;;;15.50;95.90;;;;;;5097005;28;20190;-84
2021/10/27 17:08:43;;;;;;;10.10;6.80;;;15.20;96.50;;;;;;5101962;28;20580;-84
2021/10/27 17:11:10;;;;;;;11.47;6.97;;;15.30;96.40;;;;;;5106655;28;20205;-84
2021/10/27 17:13:36;;;;;;;11.10;6.73;;;15.20;96.60;;;;;;5121361;28;20171;-84
2021/10/27 17:16:03;;;;;;;9.93;7.17;;;15.20;97.00;;;;;;5105900;28;20178;-85
2021/10/27 17:18:33;;;;;;;11.07;6.63;;;15.10;97.40;;;;;;5105209;28;20659;-85
2021/10/27 17:21:00;;;;;;;8.23;6.00;;;15.10;97.50;;;;;;5126434;28;20286;-84
2021/10/27 17:23:31;;;;;;;10.83;6.83;;;15.00;97.50;;;;;;5105184;28;20170;-84
2021/10/27 17:25:58;;;;;;;10.77;6.67;;;15.00;97.70;;;;;;5084436;28;20184;-83